Terminal Aerodrome Forecast
Issued by NWS

Home | Current Version | Previous Version | Text Only | Print | Product List | Glossary Off
Versions: 1 2 3 4 5 6 7 8 9 10 11 12 13 14 15

883
FTUS43 KICT 022326
TAFCNU
TAF
KCNU 022326Z 0300/0324 25023G31KT P6SM OVC045
     FM030600 29016G24KT P6SM OVC035
     FM031800 32014KT P6SM SCT035 SCT110=

USA.gov is the U.S. government's official web portal to all federal, state and local government web resources and services.